sensor_id;sensor_type;location;lat;lon;timestamp;temperature;humidity
14188;DHT22;7175;51.978;5.330;2023-06-14T00:02:24;19.10;79.80
14188;DHT22;7175;51.978;5.330;2023-06-14T00:04:53;19.10;80.00
14188;DHT22;7175;51.978;5.330;2023-06-14T00:07:33;19.00;80.40
14188;DHT22;7175;51.978;5.330;2023-06-14T00:10:02;19.10;80.60
14188;DHT22;7175;51.978;5.330;2023-06-14T00:12:32;19.10;81.10
14188;DHT22;7175;51.978;5.330;2023-06-14T00:15:00;18.90;81.20
14188;DHT22;7175;51.978;5.330;2023-06-14T00:17:29;18.90;81.30
14188;DHT22;7175;51.978;5.330;2023-06-14T00:19:58;18.90;81.60
14188;DHT22;7175;51.978;5.330;2023-06-14T00:22:26;18.80;81.80
14188;DHT22;7175;51.978;5.330;2023-06-14T00:24:55;18.80;82.20
14188;DHT22;7175;51.978;5.330;2023-06-14T00:27:23;18.80;82.20
14188;DHT22;7175;51.978;5.330;2023-06-14T00:29:52;18.70;82.20
14188;DHT22;7175;51.978;5.330;2023-06-14T00:32:21;18.70;82.40
14188;DHT22;7175;51.978;5.330;2023-06-14T00:34:52;18.70;82.80
14188;DHT22;7175;51.978;5.330;2023-06-14T00:37:20;18.70;82.80
14188;DHT22;7175;51.978;5.330;2023-06-14T00:39:48;18.70;82.60
14188;DHT22;7175;51.978;5.330;2023-06-14T00:42:24;18.70;83.00
14188;DHT22;7175;51.978;5.330;2023-06-14T00:44:54;18.60;83.00
14188;DHT22;7175;51.978;5.330;2023-06-14T00:47:22;18.60;82.90
14188;DHT22;7175;51.978;5.330;2023-06-14T00:49:51;18.60;83.30
14188;DHT22;7175;51.978;5.330;2023-06-14T00:52:21;18.50;83.50
14188;DHT22;7175;51.978;5.330;2023-06-14T00:54:50;18.40;84.00
14188;DHT22;7175;51.978;5.330;2023-06-14T00:57:19;18.50;83.80
14188;DHT22;7175;51.978;5.330;2023-06-14T00:59:49;18.40;84.70
14188;DHT22;7175;51.978;5.330;2023-06-14T01:02:18;18.30;84.70
14188;DHT22;7175;51.978;5.330;2023-06-14T01:04:47;18.30;85.40
14188;DHT22;7175;51.978;5.330;2023-06-14T01:07:23;18.30;85.30
14188;DHT22;7175;51.978;5.330;2023-06-14T01:10:01;18.30;85.80
14188;DHT22;7175;51.978;5.330;2023-06-14T01:12:39;18.30;85.80
14188;DHT22;7175;51.978;5.330;2023-06-14T01:15:13;18.20;86.20
14188;DHT22;7175;51.978;5.330;2023-06-14T01:17:44;18.20;86.30
14188;DHT22;7175;51.978;5.330;2023-06-14T01:20:13;18.10;86.80
14188;DHT22;7175;51.978;5.330;2023-06-14T01:22:50;18.10;87.30
14188;DHT22;7175;51.978;5.330;2023-06-14T01:25:19;18.00;87.10
14188;DHT22;7175;51.978;5.330;2023-06-14T01:27:51;18.00;87.40
14188;DHT22;7175;51.978;5.330;2023-06-14T01:30:20;18.00;87.80
14188;DHT22;7175;51.978;5.330;2023-06-14T01:32:51;17.90;88.00
14188;DHT22;7175;51.978;5.330;2023-06-14T01:35:20;18.00;88.90
14188;DHT22;7175;51.978;5.330;2023-06-14T01:37:49;18.00;88.70
14188;DHT22;7175;51.978;5.330;2023-06-14T01:40:19;17.90;88.40
14188;DHT22;7175;51.978;5.330;2023-06-14T01:42:50;17.90;89.00
14188;DHT22;7175;51.978;5.330;2023-06-14T01:45:19;17.80;89.40
14188;DHT22;7175;51.978;5.330;2023-06-14T01:47:48;17.80;89.50
14188;DHT22;7175;51.978;5.330;2023-06-14T01:50:19;17.80;89.70
14188;DHT22;7175;51.978;5.330;2023-06-14T01:52:48;17.80;90.00
14188;DHT22;7175;51.978;5.330;2023-06-14T01:55:16;17.70;90.00
14188;DHT22;7175;51.978;5.330;2023-06-14T01:57:44;17.60;90.30
14188;DHT22;7175;51.978;5.330;2023-06-14T02:00:13;17.60;90.40
14188;DHT22;7175;51.978;5.330;2023-06-14T02:02:43;17.60;90.60
14188;DHT22;7175;51.978;5.330;2023-06-14T02:05:11;17.60;90.60
14188;DHT22;7175;51.978;5.330;2023-06-14T02:07:39;17.60;90.90
14188;DHT22;7175;51.978;5.330;2023-06-14T02:10:08;17.60;90.80
14188;DHT22;7175;51.978;5.330;2023-06-14T02:12:36;17.50;91.20
14188;DHT22;7175;51.978;5.330;2023-06-14T02:15:05;17.40;91.30
14188;DHT22;7175;51.978;5.330;2023-06-14T02:17:33;17.40;91.50
14188;DHT22;7175;51.978;5.330;2023-06-14T02:20:02;17.40;91.40
14188;DHT22;7175;51.978;5.330;2023-06-14T02:22:31;17.30;91.30
14188;DHT22;7175;51.978;5.330;2023-06-14T02:24:59;17.20;91.60
14188;DHT22;7175;51.978;5.330;2023-06-14T02:27:29;17.10;91.70
14188;DHT22;7175;51.978;5.330;2023-06-14T02:29:58;17.20;91.90
14188;DHT22;7175;51.978;5.330;2023-06-14T02:32:26;17.20;92.00
14188;DHT22;7175;51.978;5.330;2023-06-14T02:34:54;17.10;92.00
14188;DHT22;7175;51.978;5.330;2023-06-14T02:37:22;17.20;92.00
14188;DHT22;7175;51.978;5.330;2023-06-14T02:39:50;17.10;92.00
14188;DHT22;7175;51.978;5.330;2023-06-14T02:42:18;17.20;92.20
14188;DHT22;7175;51.978;5.330;2023-06-14T02:44:48;17.10;92.30
14188;DHT22;7175;51.978;5.330;2023-06-14T02:47:18;17.00;92.40
14188;DHT22;7175;51.978;5.330;2023-06-14T02:49:46;16.90;92.40
14188;DHT22;7175;51.978;5.330;2023-06-14T02:52:14;16.90;92.60
14188;DHT22;7175;51.978;5.330;2023-06-14T02:54:42;16.90;92.50
14188;DHT22;7175;51.978;5.330;2023-06-14T02:57:10;16.90;92.60
14188;DHT22;7175;51.978;5.330;2023-06-14T02:59:38;16.90;92.70
14188;DHT22;7175;51.978;5.330;2023-06-14T03:02:07;16.90;92.90
14188;DHT22;7175;51.978;5.330;2023-06-14T03:04:35;16.80;92.80
14188;DHT22;7175;51.978;5.330;2023-06-14T03:07:05;16.80;93.00
14188;DHT22;7175;51.978;5.330;2023-06-14T03:09:36;16.80;93.20
14188;DHT22;7175;51.978;5.330;2023-06-14T03:12:05;16.80;93.00
14188;DHT22;7175;51.978;5.330;2023-06-14T03:14:34;16.60;93.40
14188;DHT22;7175;51.978;5.330;2023-06-14T03:17:02;16.70;93.30
14188;DHT22;7175;51.978;5.330;2023-06-14T03:19:33;16.60;93.50
14188;DHT22;7175;51.978;5.330;2023-06-14T03:22:01;16.60;93.70
14188;DHT22;7175;51.978;5.330;2023-06-14T03:24:29;16.60;94.00
14188;DHT22;7175;51.978;5.330;2023-06-14T03:26:58;16.60;94.00
14188;DHT22;7175;51.978;5.330;2023-06-14T03:29:26;16.50;94.00
14188;DHT22;7175;51.978;5.330;2023-06-14T03:31:58;16.40;94.20
14188;DHT22;7175;51.978;5.330;2023-06-14T03:34:26;16.50;94.20
14188;DHT22;7175;51.978;5.330;2023-06-14T03:36:55;16.50;94.40
14188;DHT22;7175;51.978;5.330;2023-06-14T03:39:23;16.60;94.50
14188;DHT22;7175;51.978;5.330;2023-06-14T03:41:51;16.50;94.70
14188;DHT22;7175;51.978;5.330;2023-06-14T03:44:21;16.60;94.70
14188;DHT22;7175;51.978;5.330;2023-06-14T03:46:49;16.50;94.70
14188;DHT22;7175;51.978;5.330;2023-06-14T03:49:17;16.40;94.90
14188;DHT22;7175;51.978;5.330;2023-06-14T03:51:45;16.50;94.90
14188;DHT22;7175;51.978;5.330;2023-06-14T03:54:19;16.50;95.20
14188;DHT22;7175;51.978;5.330;2023-06-14T03:56:51;16.50;95.00
14188;DHT22;7175;51.978;5.330;2023-06-14T03:59:19;16.50;95.00
14188;DHT22;7175;51.978;5.330;2023-06-14T04:01:48;16.50;95.20
14188;DHT22;7175;51.978;5.330;2023-06-14T04:04:16;16.40;95.30
14188;DHT22;7175;51.978;5.330;2023-06-14T04:06:45;16.50;95.30
14188;DHT22;7175;51.978;5.330;2023-06-14T04:09:15;16.40;95.60
14188;DHT22;7175;51.978;5.330;2023-06-14T04:11:45;16.30;95.70
14188;DHT22;7175;51.978;5.330;2023-06-14T04:14:13;16.40;95.80
14188;DHT22;7175;51.978;5.330;2023-06-14T04:16:41;16.40;95.90
14188;DHT22;7175;51.978;5.330;2023-06-14T04:19:09;16.40;95.90
14188;DHT22;7175;51.978;5.330;2023-06-14T04:21:37;16.30;96.00
14188;DHT22;7175;51.978;5.330;2023-06-14T04:24:05;16.30;95.90
14188;DHT22;7175;51.978;5.330;2023-06-14T04:26:41;16.40;96.40
14188;DHT22;7175;51.978;5.330;2023-06-14T04:29:13;16.40;96.40
14188;DHT22;7175;51.978;5.330;2023-06-14T04:31:43;16.40;96.20
14188;DHT22;7175;51.978;5.330;2023-06-14T04:34:12;16.30;96.60
14188;DHT22;7175;51.978;5.330;2023-06-14T04:36:43;16.40;96.90
14188;DHT22;7175;51.978;5.330;2023-06-14T04:39:16;16.30;97.00
14188;DHT22;7175;51.978;5.330;2023-06-14T04:41:45;16.40;97.10
14188;DHT22;7175;51.978;5.330;2023-06-14T04:44:15;16.40;97.30
14188;DHT22;7175;51.978;5.330;2023-06-14T04:46:43;16.40;97.50
14188;DHT22;7175;51.978;5.330;2023-06-14T04:49:13;16.50;97.60
14188;DHT22;7175;51.978;5.330;2023-06-14T04:51:42;16.60;97.70
14188;DHT22;7175;51.978;5.330;2023-06-14T04:54:11;16.50;97.90
14188;DHT22;7175;51.978;5.330;2023-06-14T04:56:40;16.50;98.00
14188;DHT22;7175;51.978;5.330;2023-06-14T04:59:09;16.70;98.10
14188;DHT22;7175;51.978;5.330;2023-06-14T05:01:40;16.60;98.00
14188;DHT22;7175;51.978;5.330;2023-06-14T05:04:08;16.70;98.20
14188;DHT22;7175;51.978;5.330;2023-06-14T05:06:36;16.70;98.20
14188;DHT22;7175;51.978;5.330;2023-06-14T05:09:05;16.80;98.30
14188;DHT22;7175;51.978;5.330;2023-06-14T05:11:32;16.90;98.30
14188;DHT22;7175;51.978;5.330;2023-06-14T05:14:01;16.90;98.20
14188;DHT22;7175;51.978;5.330;2023-06-14T05:16:29;17.00;98.40
14188;DHT22;7175;51.978;5.330;2023-06-14T05:18:58;17.00;98.30
14188;DHT22;7175;51.978;5.330;2023-06-14T05:21:26;17.10;98.40
14188;DHT22;7175;51.978;5.330;2023-06-14T05:23:54;17.10;98.30
14188;DHT22;7175;51.978;5.330;2023-06-14T05:26:22;17.20;98.50
14188;DHT22;7175;51.978;5.330;2023-06-14T05:28:55;17.20;98.40
14188;DHT22;7175;51.978;5.330;2023-06-14T05:31:24;17.40;98.70
14188;DHT22;7175;51.978;5.330;2023-06-14T05:33:53;17.50;99.00
14188;DHT22;7175;51.978;5.330;2023-06-14T05:36:28;17.60;98.40
14188;DHT22;7175;51.978;5.330;2023-06-14T05:38:56;17.80;98.20
14188;DHT22;7175;51.978;5.330;2023-06-14T05:41:26;17.80;97.90
14188;DHT22;7175;51.978;5.330;2023-06-14T05:43:55;17.90;97.80
14188;DHT22;7175;51.978;5.330;2023-06-14T05:46:24;18.10;97.70
14188;DHT22;7175;51.978;5.330;2023-06-14T05:48:53;18.20;97.70
14188;DHT22;7175;51.978;5.330;2023-06-14T05:51:23;18.50;97.50
14188;DHT22;7175;51.978;5.330;2023-06-14T05:53:52;18.70;97.10
14188;DHT22;7175;51.978;5.330;2023-06-14T05:56:21;18.90;97.00
14188;DHT22;7175;51.978;5.330;2023-06-14T05:58:49;19.00;96.30
14188;DHT22;7175;51.978;5.330;2023-06-14T06:01:18;19.00;95.70
14188;DHT22;7175;51.978;5.330;2023-06-14T06:03:46;19.20;95.20
14188;DHT22;7175;51.978;5.330;2023-06-14T06:06:15;19.30;94.70
14188;DHT22;7175;51.978;5.330;2023-06-14T06:08:44;19.60;93.80
14188;DHT22;7175;51.978;5.330;2023-06-14T06:11:12;19.80;93.00
14188;DHT22;7175;51.978;5.330;2023-06-14T06:13:40;20.00;92.50
14188;DHT22;7175;51.978;5.330;2023-06-14T06:16:08;20.30;92.10
14188;DHT22;7175;51.978;5.330;2023-06-14T06:18:36;20.40;91.30
14188;DHT22;7175;51.978;5.330;2023-06-14T06:21:06;20.10;90.50
14188;DHT22;7175;51.978;5.330;2023-06-14T06:23:34;20.20;90.90
14188;DHT22;7175;51.978;5.330;2023-06-14T06:26:03;20.20;90.20
14188;DHT22;7175;51.978;5.330;2023-06-14T06:28:32;20.20;90.10
14188;DHT22;7175;51.978;5.330;2023-06-14T06:31:00;20.30;90.20
14188;DHT22;7175;51.978;5.330;2023-06-14T06:33:30;20.50;89.90
14188;DHT22;7175;51.978;5.330;2023-06-14T06:35:58;20.30;88.60
14188;DHT22;7175;51.978;5.330;2023-06-14T06:38:26;20.50;89.30
14188;DHT22;7175;51.978;5.330;2023-06-14T06:40:54;20.70;88.90
14188;DHT22;7175;51.978;5.330;2023-06-14T06:43:24;20.70;88.00
14188;DHT22;7175;51.978;5.330;2023-06-14T06:45:52;20.90;87.10
14188;DHT22;7175;51.978;5.330;2023-06-14T06:48:21;20.90;85.90
14188;DHT22;7175;51.978;5.330;2023-06-14T06:50:48;20.70;86.30
14188;DHT22;7175;51.978;5.330;2023-06-14T06:53:18;21.00;87.10
14188;DHT22;7175;51.978;5.330;2023-06-14T06:55:56;21.30;86.60
14188;DHT22;7175;51.978;5.330;2023-06-14T06:58:26;21.50;85.50
14188;DHT22;7175;51.978;5.330;2023-06-14T07:00:54;21.50;84.40
14188;DHT22;7175;51.978;5.330;2023-06-14T07:03:22;21.80;82.40
14188;DHT22;7175;51.978;5.330;2023-06-14T07:05:50;21.90;82.80
14188;DHT22;7175;51.978;5.330;2023-06-14T07:08:19;22.10;82.60
14188;DHT22;7175;51.978;5.330;2023-06-14T07:10:47;22.30;82.40
14188;DHT22;7175;51.978;5.330;2023-06-14T07:13:15;22.60;82.20
14188;DHT22;7175;51.978;5.330;2023-06-14T07:15:45;22.50;80.60
14188;DHT22;7175;51.978;5.330;2023-06-14T07:18:13;22.40;80.60
14188;DHT22;7175;51.978;5.330;2023-06-14T07:20:42;22.60;81.20
14188;DHT22;7175;51.978;5.330;2023-06-14T07:23:11;22.70;79.80
14188;DHT22;7175;51.978;5.330;2023-06-14T07:25:39;23.10;78.40
14188;DHT22;7175;51.978;5.330;2023-06-14T07:28:07;22.90;77.20
14188;DHT22;7175;51.978;5.330;2023-06-14T07:30:35;23.00;79.00
14188;DHT22;7175;51.978;5.330;2023-06-14T07:33:04;23.20;78.10
14188;DHT22;7175;51.978;5.330;2023-06-14T07:35:33;23.40;76.30
14188;DHT22;7175;51.978;5.330;2023-06-14T07:38:01;23.20;76.00
14188;DHT22;7175;51.978;5.330;2023-06-14T07:40:29;23.30;75.40
14188;DHT22;7175;51.978;5.330;2023-06-14T07:42:57;23.20;74.60
14188;DHT22;7175;51.978;5.330;2023-06-14T07:45:26;23.60;74.70
14188;DHT22;7175;51.978;5.330;2023-06-14T07:47:54;23.30;71.10
14188;DHT22;7175;51.978;5.330;2023-06-14T07:50:23;23.50;71.30
14188;DHT22;7175;51.978;5.330;2023-06-14T07:52:52;23.00;70.60
14188;DHT22;7175;51.978;5.330;2023-06-14T07:55:20;23.10;71.40
14188;DHT22;7175;51.978;5.330;2023-06-14T07:57:48;23.20;70.90
14188;DHT22;7175;51.978;5.330;2023-06-14T08:00:17;23.20;69.40
14188;DHT22;7175;51.978;5.330;2023-06-14T08:02:46;23.20;69.50
14188;DHT22;7175;51.978;5.330;2023-06-14T08:05:14;23.80;70.00
14188;DHT22;7175;51.978;5.330;2023-06-14T08:07:44;23.90;69.10
14188;DHT22;7175;51.978;5.330;2023-06-14T08:10:12;23.60;67.70
14188;DHT22;7175;51.978;5.330;2023-06-14T08:12:43;23.50;68.30
14188;DHT22;7175;51.978;5.330;2023-06-14T08:15:12;23.50;67.30
14188;DHT22;7175;51.978;5.330;2023-06-14T08:17:46;23.70;68.20
14188;DHT22;7175;51.978;5.330;2023-06-14T08:20:14;23.60;67.00
14188;DHT22;7175;51.978;5.330;2023-06-14T08:22:45;23.90;67.40
14188;DHT22;7175;51.978;5.330;2023-06-14T08:25:14;24.40;67.50
14188;DHT22;7175;51.978;5.330;2023-06-14T08:27:42;24.40;65.10
14188;DHT22;7175;51.978;5.330;2023-06-14T08:30:12;24.40;63.30
14188;DHT22;7175;51.978;5.330;2023-06-14T08:32:40;24.50;62.00
14188;DHT22;7175;51.978;5.330;2023-06-14T08:35:08;24.40;60.30
14188;DHT22;7175;51.978;5.330;2023-06-14T08:37:38;24.50;59.50
14188;DHT22;7175;51.978;5.330;2023-06-14T08:40:19;24.40;61.20
14188;DHT22;7175;51.978;5.330;2023-06-14T08:42:50;24.70;59.90
14188;DHT22;7175;51.978;5.330;2023-06-14T08:45:19;24.70;60.70
14188;DHT22;7175;51.978;5.330;2023-06-14T08:47:52;24.80;59.30
14188;DHT22;7175;51.978;5.330;2023-06-14T08:50:26;24.50;57.50
14188;DHT22;7175;51.978;5.330;2023-06-14T08:52:58;24.50;58.10
14188;DHT22;7175;51.978;5.330;2023-06-14T08:55:31;25.00;58.60
14188;DHT22;7175;51.978;5.330;2023-06-14T08:58:04;25.50;58.80
14188;DHT22;7175;51.978;5.330;2023-06-14T09:00:32;25.60;58.10
14188;DHT22;7175;51.978;5.330;2023-06-14T09:03:01;25.30;56.60
14188;DHT22;7175;51.978;5.330;2023-06-14T09:05:30;25.40;56.60
14188;DHT22;7175;51.978;5.330;2023-06-14T09:07:58;25.70;56.40
14188;DHT22;7175;51.978;5.330;2023-06-14T09:10:33;26.30;54.60
14188;DHT22;7175;51.978;5.330;2023-06-14T09:13:05;26.10;53.20
14188;DHT22;7175;51.978;5.330;2023-06-14T09:15:34;26.30;53.90
14188;DHT22;7175;51.978;5.330;2023-06-14T09:18:02;26.30;51.90
14188;DHT22;7175;51.978;5.330;2023-06-14T09:20:31;25.80;51.80
14188;DHT22;7175;51.978;5.330;2023-06-14T09:23:00;25.60;51.80
14188;DHT22;7175;51.978;5.330;2023-06-14T09:25:28;25.90;50.60
14188;DHT22;7175;51.978;5.330;2023-06-14T09:28:07;25.80;50.30
14188;DHT22;7175;51.978;5.330;2023-06-14T09:30:36;26.30;50.70
14188;DHT22;7175;51.978;5.330;2023-06-14T09:33:05;26.00;48.50
14188;DHT22;7175;51.978;5.330;2023-06-14T09:35:33;25.90;48.50
14188;DHT22;7175;51.978;5.330;2023-06-14T09:38:01;26.20;49.00
14188;DHT22;7175;51.978;5.330;2023-06-14T09:40:34;26.60;49.10
14188;DHT22;7175;51.978;5.330;2023-06-14T09:43:05;26.70;48.70
14188;DHT22;7175;51.978;5.330;2023-06-14T09:45:37;26.00;47.80
14188;DHT22;7175;51.978;5.330;2023-06-14T09:48:07;26.10;49.00
14188;DHT22;7175;51.978;5.330;2023-06-14T09:50:35;26.80;47.80
14188;DHT22;7175;51.978;5.330;2023-06-14T09:53:07;27.10;48.50
14188;DHT22;7175;51.978;5.330;2023-06-14T09:55:40;26.70;47.00
14188;DHT22;7175;51.978;5.330;2023-06-14T09:58:10;26.60;47.30
14188;DHT22;7175;51.978;5.330;2023-06-14T10:00:41;26.70;46.60
14188;DHT22;7175;51.978;5.330;2023-06-14T10:03:12;26.80;46.80
14188;DHT22;7175;51.978;5.330;2023-06-14T10:05:43;26.70;45.80
14188;DHT22;7175;51.978;5.330;2023-06-14T10:08:14;27.30;46.10
14188;DHT22;7175;51.978;5.330;2023-06-14T10:10:45;26.90;43.60
14188;DHT22;7175;51.978;5.330;2023-06-14T10:13:14;27.50;44.00
14188;DHT22;7175;51.978;5.330;2023-06-14T10:15:51;27.90;42.50
14188;DHT22;7175;51.978;5.330;2023-06-14T10:18:25;27.40;41.30
14188;DHT22;7175;51.978;5.330;2023-06-14T10:21:04;27.30;41.60
14188;DHT22;7175;51.978;5.330;2023-06-14T10:23:38;27.70;42.80
14188;DHT22;7175;51.978;5.330;2023-06-14T10:26:08;27.40;40.40
14188;DHT22;7175;51.978;5.330;2023-06-14T10:28:37;27.60;40.90
14188;DHT22;7175;51.978;5.330;2023-06-14T10:31:08;27.30;40.40
14188;DHT22;7175;51.978;5.330;2023-06-14T10:33:39;27.90;41.40
14188;DHT22;7175;51.978;5.330;2023-06-14T10:36:24;28.10;41.30
14188;DHT22;7175;51.978;5.330;2023-06-14T10:38:57;27.20;40.60
14188;DHT22;7175;51.978;5.330;2023-06-14T10:41:27;26.80;40.30
14188;DHT22;7175;51.978;5.330;2023-06-14T10:44:34;27.50;42.10
14188;DHT22;7175;51.978;5.330;2023-06-14T10:47:20;28.00;41.30
14188;DHT22;7175;51.978;5.330;2023-06-14T10:49:51;28.10;42.50
14188;DHT22;7175;51.978;5.330;2023-06-14T10:52:22;28.20;41.40
14188;DHT22;7175;51.978;5.330;2023-06-14T10:55:12;28.30;42.40
14188;DHT22;7175;51.978;5.330;2023-06-14T10:57:43;28.80;41.40
14188;DHT22;7175;51.978;5.330;2023-06-14T11:00:19;28.90;40.70
14188;DHT22;7175;51.978;5.330;2023-06-14T11:06:13;29.00;39.30
14188;DHT22;7175;51.978;5.330;2023-06-14T11:11:57;28.80;40.80
14188;DHT22;7175;51.978;5.330;2023-06-14T11:14:25;28.70;40.20
14188;DHT22;7175;51.978;5.330;2023-06-14T11:16:57;28.80;40.40
14188;DHT22;7175;51.978;5.330;2023-06-14T11:19:25;28.90;39.50
14188;DHT22;7175;51.978;5.330;2023-06-14T11:21:57;29.50;40.60
14188;DHT22;7175;51.978;5.330;2023-06-14T11:24:25;28.60;39.40
14188;DHT22;7175;51.978;5.330;2023-06-14T11:26:53;28.70;40.70
14188;DHT22;7175;51.978;5.330;2023-06-14T11:32:49;29.20;39.20
14188;DHT22;7175;51.978;5.330;2023-06-14T11:35:22;29.50;39.30
14188;DHT22;7175;51.978;5.330;2023-06-14T11:37:54;29.50;39.60
14188;DHT22;7175;51.978;5.330;2023-06-14T11:40:24;29.40;38.70
14188;DHT22;7175;51.978;5.330;2023-06-14T11:42:58;28.90;38.10
14188;DHT22;7175;51.978;5.330;2023-06-14T11:45:28;28.80;39.00
14188;DHT22;7175;51.978;5.330;2023-06-14T11:47:59;29.00;36.40
14188;DHT22;7175;51.978;5.330;2023-06-14T11:50:28;29.10;34.80
14188;DHT22;7175;51.978;5.330;2023-06-14T11:52:59;29.00;37.10
14188;DHT22;7175;51.978;5.330;2023-06-14T11:55:36;28.60;37.20
14188;DHT22;7175;51.978;5.330;2023-06-14T11:58:05;28.90;39.00
14188;DHT22;7175;51.978;5.330;2023-06-14T12:00:35;28.90;38.60
14188;DHT22;7175;51.978;5.330;2023-06-14T12:03:04;29.20;37.20
14188;DHT22;7175;51.978;5.330;2023-06-14T12:05:33;29.50;37.40
14188;DHT22;7175;51.978;5.330;2023-06-14T12:08:04;29.40;36.80
14188;DHT22;7175;51.978;5.330;2023-06-14T12:10:43;29.70;37.70
14188;DHT22;7175;51.978;5.330;2023-06-14T12:13:12;29.70;37.20
14188;DHT22;7175;51.978;5.330;2023-06-14T12:15:40;29.20;37.80
14188;DHT22;7175;51.978;5.330;2023-06-14T12:18:10;29.10;37.60
14188;DHT22;7175;51.978;5.330;2023-06-14T12:20:39;29.40;37.10
14188;DHT22;7175;51.978;5.330;2023-06-14T12:23:10;29.60;35.50
14188;DHT22;7175;51.978;5.330;2023-06-14T12:25:38;29.00;34.30
14188;DHT22;7175;51.978;5.330;2023-06-14T12:28:08;29.20;36.30
14188;DHT22;7175;51.978;5.330;2023-06-14T12:30:37;29.30;36.50
14188;DHT22;7175;51.978;5.330;2023-06-14T12:33:06;28.90;34.80
14188;DHT22;7175;51.978;5.330;2023-06-14T12:35:35;28.90;35.60
14188;DHT22;7175;51.978;5.330;2023-06-14T12:38:03;29.60;35.40
14188;DHT22;7175;51.978;5.330;2023-06-14T12:40:33;29.70;35.10
14188;DHT22;7175;51.978;5.330;2023-06-14T12:43:02;29.30;34.60
14188;DHT22;7175;51.978;5.330;2023-06-14T12:45:31;29.10;35.90
14188;DHT22;7175;51.978;5.330;2023-06-14T12:47:59;28.30;37.20
14188;DHT22;7175;51.978;5.330;2023-06-14T12:50:28;28.40;35.80
14188;DHT22;7175;51.978;5.330;2023-06-14T12:52:57;28.90;36.60
14188;DHT22;7175;51.978;5.330;2023-06-14T12:55:26;28.30;37.60
14188;DHT22;7175;51.978;5.330;2023-06-14T12:57:55;28.80;38.40
14188;DHT22;7175;51.978;5.330;2023-06-14T13:00:24;29.40;37.90
14188;DHT22;7175;51.978;5.330;2023-06-14T13:02:54;29.20;37.60
14188;DHT22;7175;51.978;5.330;2023-06-14T13:05:22;28.00;36.60
14188;DHT22;7175;51.978;5.330;2023-06-14T13:07:51;28.40;37.30
14188;DHT22;7175;51.978;5.330;2023-06-14T13:10:19;28.40;37.60
14188;DHT22;7175;51.978;5.330;2023-06-14T13:12:48;28.60;38.50
14188;DHT22;7175;51.978;5.330;2023-06-14T13:15:17;29.30;36.90
14188;DHT22;7175;51.978;5.330;2023-06-14T13:17:46;29.00;37.00
14188;DHT22;7175;51.978;5.330;2023-06-14T13:20:15;29.00;36.70
14188;DHT22;7175;51.978;5.330;2023-06-14T13:22:46;28.80;38.40
14188;DHT22;7175;51.978;5.330;2023-06-14T13:25:15;28.60;39.60
14188;DHT22;7175;51.978;5.330;2023-06-14T13:27:43;28.30;36.90
14188;DHT22;7175;51.978;5.330;2023-06-14T13:30:12;28.20;37.20
14188;DHT22;7175;51.978;5.330;2023-06-14T13:32:43;28.40;38.00
14188;DHT22;7175;51.978;5.330;2023-06-14T13:35:16;28.20;38.10
14188;DHT22;7175;51.978;5.330;2023-06-14T13:37:45;28.90;38.00
14188;DHT22;7175;51.978;5.330;2023-06-14T13:40:14;28.10;37.90
14188;DHT22;7175;51.978;5.330;2023-06-14T13:42:44;28.30;39.90
14188;DHT22;7175;51.978;5.330;2023-06-14T13:45:14;28.90;40.00
14188;DHT22;7175;51.978;5.330;2023-06-14T13:47:44;28.80;38.40
14188;DHT22;7175;51.978;5.330;2023-06-14T13:50:15;28.60;39.60
14188;DHT22;7175;51.978;5.330;2023-06-14T13:52:47;28.90;39.30
14188;DHT22;7175;51.978;5.330;2023-06-14T13:55:15;28.80;37.80
14188;DHT22;7175;51.978;5.330;2023-06-14T13:57:43;28.00;38.30
14188;DHT22;7175;51.978;5.330;2023-06-14T14:00:13;27.70;38.60
14188;DHT22;7175;51.978;5.330;2023-06-14T14:02:43;27.20;39.30
14188;DHT22;7175;51.978;5.330;2023-06-14T14:05:12;27.50;40.20
14188;DHT22;7175;51.978;5.330;2023-06-14T14:07:40;27.90;40.20
14188;DHT22;7175;51.978;5.330;2023-06-14T14:10:10;28.00;39.50
14188;DHT22;7175;51.978;5.330;2023-06-14T14:12:40;27.70;38.60
14188;DHT22;7175;51.978;5.330;2023-06-14T14:15:13;28.30;39.30
14188;DHT22;7175;51.978;5.330;2023-06-14T14:17:44;28.20;38.90
14188;DHT22;7175;51.978;5.330;2023-06-14T14:20:13;28.50;40.00
14188;DHT22;7175;51.978;5.330;2023-06-14T14:22:43;27.70;39.30
14188;DHT22;7175;51.978;5.330;2023-06-14T14:25:11;27.90;40.20
14188;DHT22;7175;51.978;5.330;2023-06-14T14:27:40;27.60;39.80
14188;DHT22;7175;51.978;5.330;2023-06-14T14:30:10;27.80;40.00
14188;DHT22;7175;51.978;5.330;2023-06-14T14:32:39;28.30;38.40
14188;DHT22;7175;51.978;5.330;2023-06-14T14:35:11;28.20;38.30
14188;DHT22;7175;51.978;5.330;2023-06-14T14:37:39;28.50;37.10
14188;DHT22;7175;51.978;5.330;2023-06-14T14:40:08;28.30;37.10
14188;DHT22;7175;51.978;5.330;2023-06-14T14:42:37;28.60;39.30
14188;DHT22;7175;51.978;5.330;2023-06-14T14:45:07;28.10;38.50
14188;DHT22;7175;51.978;5.330;2023-06-14T14:47:36;27.90;39.00
14188;DHT22;7175;51.978;5.330;2023-06-14T14:50:06;28.10;39.60
14188;DHT22;7175;51.978;5.330;2023-06-14T14:52:37;28.10;39.60
14188;DHT22;7175;51.978;5.330;2023-06-14T14:55:07;27.90;40.50
14188;DHT22;7175;51.978;5.330;2023-06-14T14:57:36;28.70;39.90
14188;DHT22;7175;51.978;5.330;2023-06-14T15:00:06;28.20;39.00
14188;DHT22;7175;51.978;5.330;2023-06-14T15:02:35;27.60;39.00
14188;DHT22;7175;51.978;5.330;2023-06-14T15:05:04;27.80;39.90
14188;DHT22;7175;51.978;5.330;2023-06-14T15:07:33;27.40;38.60
14188;DHT22;7175;51.978;5.330;2023-06-14T15:10:06;27.80;39.60
14188;DHT22;7175;51.978;5.330;2023-06-14T15:12:35;28.00;38.80
14188;DHT22;7175;51.978;5.330;2023-06-14T15:15:04;27.70;39.20
14188;DHT22;7175;51.978;5.330;2023-06-14T15:17:33;28.00;41.40
14188;DHT22;7175;51.978;5.330;2023-06-14T15:20:03;27.80;39.70
14188;DHT22;7175;51.978;5.330;2023-06-14T15:22:33;27.20;40.70
14188;DHT22;7175;51.978;5.330;2023-06-14T15:25:01;27.40;41.30
14188;DHT22;7175;51.978;5.330;2023-06-14T15:27:31;27.10;41.20
14188;DHT22;7175;51.978;5.330;2023-06-14T15:33:54;27.00;41.60
14188;DHT22;7175;51.978;5.330;2023-06-14T15:36:24;26.80;41.40
14188;DHT22;7175;51.978;5.330;2023-06-14T15:38:53;26.70;43.10
14188;DHT22;7175;51.978;5.330;2023-06-14T15:41:21;26.80;41.60
14188;DHT22;7175;51.978;5.330;2023-06-14T15:43:50;26.30;42.50
14188;DHT22;7175;51.978;5.330;2023-06-14T15:46:21;26.30;43.30
14188;DHT22;7175;51.978;5.330;2023-06-14T15:48:49;26.40;43.10
14188;DHT22;7175;51.978;5.330;2023-06-14T15:51:17;26.30;42.80
14188;DHT22;7175;51.978;5.330;2023-06-14T15:53:45;26.10;43.00
14188;DHT22;7175;51.978;5.330;2023-06-14T15:56:15;25.90;43.70
14188;DHT22;7175;51.978;5.330;2023-06-14T15:58:44;26.00;44.90
14188;DHT22;7175;51.978;5.330;2023-06-14T16:01:14;26.00;44.80
14188;DHT22;7175;51.978;5.330;2023-06-14T16:03:42;25.90;44.90
14188;DHT22;7175;51.978;5.330;2023-06-14T16:06:10;26.10;45.90
14188;DHT22;7175;51.978;5.330;2023-06-14T16:08:39;26.20;43.60
14188;DHT22;7175;51.978;5.330;2023-06-14T16:11:07;26.20;42.70
14188;DHT22;7175;51.978;5.330;2023-06-14T16:13:39;25.80;40.60
14188;DHT22;7175;51.978;5.330;2023-06-14T16:16:09;25.70;41.80